createdAt,value
2023-05-08T00:01:31.547Z,37.86
2023-05-08T00:03:59.510Z,37.88
2023-05-08T00:06:30.111Z,37.84
2023-05-08T00:08:57.494Z,37.94
2023-05-08T00:11:25.602Z,37.92
2023-05-08T00:13:53.060Z,37.99
2023-05-08T00:16:20.497Z,37.79
2023-05-08T00:18:48.277Z,37.76
2023-05-08T00:21:15.702Z,37.68
2023-05-08T00:23:43.419Z,37.67
2023-05-08T00:26:11.163Z,37.62
2023-05-08T00:28:38.609Z,37.46
2023-05-08T00:31:06.788Z,37.46
2023-05-08T00:33:34.757Z,37.53
2023-05-08T00:36:02.673Z,37.52
2023-05-08T00:38:31.405Z,37.43
2023-05-08T00:40:59.227Z,37.54
2023-05-08T00:43:28.377Z,37.56
2023-05-08T00:45:56.534Z,37.40
2023-05-08T00:48:24.712Z,37.27
2023-05-08T00:50:52.880Z,37.25
2023-05-08T00:53:20.763Z,37.16
2023-05-08T00:55:49.382Z,37.32
2023-05-08T00:58:16.808Z,37.33
2023-05-08T01:00:44.412Z,37.37
2023-05-08T01:03:12.730Z,37.33
2023-05-08T01:05:40.589Z,37.22
2023-05-08T01:08:08.011Z,37.15
2023-05-08T01:10:44.869Z,37.12
2023-05-08T01:13:20.709Z,37.12
2023-05-08T01:15:51.766Z,37.13
2023-05-08T01:18:35.545Z,37.08
2023-05-08T01:21:14.376Z,37.00
2023-05-08T01:24:12.589Z,37.04
2023-05-08T01:27:08.946Z,36.96
2023-05-08T01:29:49.064Z,36.94
2023-05-08T01:32:41.320Z,36.98
2023-05-08T01:35:37.433Z,36.87
2023-05-08T01:38:21.601Z,36.80
2023-05-08T01:41:03.432Z,36.68
2023-05-08T01:43:43.150Z,36.60
2023-05-08T01:46:14.864Z,36.59
2023-05-08T01:48:57.788Z,36.60
2023-05-08T01:51:25.719Z,36.56
2023-05-08T01:53:56.479Z,36.70
2023-05-08T01:56:24.506Z,36.71
2023-05-08T01:58:52.952Z,36.70
2023-05-08T02:01:23.559Z,36.69
2023-05-08T02:03:51.889Z,36.66
2023-05-08T02:06:22.025Z,36.61
2023-05-08T02:08:49.469Z,36.71
2023-05-08T02:11:18.320Z,36.58
2023-05-08T02:13:47.200Z,36.52
2023-05-08T02:16:15.100Z,36.59
2023-05-08T02:18:44.910Z,36.43
2023-05-08T02:21:12.353Z,36.47
2023-05-08T02:23:40.048Z,36.27
2023-05-08T02:26:07.528Z,36.20
2023-05-08T02:29:03.302Z,36.26
2023-05-08T02:31:31.187Z,36.17
2023-05-08T02:33:58.880Z,36.14
2023-05-08T02:36:26.289Z,36.20
2023-05-08T02:38:57.178Z,36.19
2023-05-08T02:41:26.046Z,36.05
2023-05-08T02:43:53.804Z,35.98
2023-05-08T02:46:41.810Z,35.94
2023-05-08T02:49:16.004Z,36.03
2023-05-08T02:51:54.396Z,36.14
2023-05-08T02:54:25.428Z,36.12
2023-05-08T02:56:57.245Z,36.12
2023-05-08T02:59:30.560Z,36.00
2023-05-08T03:02:17.140Z,35.93
2023-05-08T03:04:51.510Z,35.92
2023-05-08T03:07:24.378Z,35.97
2023-05-08T03:09:57.247Z,35.83
2023-05-08T03:12:26.403Z,35.78
2023-05-08T03:15:14.905Z,35.70
2023-05-08T03:17:42.869Z,35.81
2023-05-08T03:20:12.662Z,35.69
2023-05-08T03:22:40.247Z,35.66
2023-05-08T03:25:09.245Z,35.57
2023-05-08T03:27:37.330Z,35.59
2023-05-08T03:30:06.200Z,35.57
2023-05-08T03:32:35.074Z,35.52
2023-05-08T03:35:03.715Z,35.67
2023-05-08T03:37:31.300Z,35.79
2023-05-08T03:39:59.523Z,35.89
2023-05-08T03:42:27.048Z,35.77
2023-05-08T03:45:13.261Z,35.70
2023-05-08T03:47:42.316Z,35.67
2023-05-08T03:50:10.584Z,35.64
2023-05-08T03:52:38.464Z,35.74
2023-05-08T03:55:06.707Z,35.80
2023-05-08T03:57:44.213Z,35.79
2023-05-08T04:00:20.444Z,35.98
2023-05-08T04:02:51.875Z,36.14
2023-05-08T04:05:37.703Z,36.24
2023-05-08T04:08:15.086Z,36.46
2023-05-08T04:10:49.122Z,36.68
2023-05-08T04:13:20.173Z,36.80
2023-05-08T04:15:52.773Z,36.85
2023-05-08T04:18:24.378Z,36.91
2023-05-08T04:20:51.971Z,36.93
2023-05-08T04:23:20.357Z,36.92
2023-05-08T04:25:48.759Z,36.95
2023-05-08T04:28:16.465Z,36.79
2023-05-08T04:30:44.819Z,36.80
2023-05-08T04:33:12.519Z,36.85
2023-05-08T04:35:40.039Z,36.87
2023-05-08T04:38:07.977Z,36.98
2023-05-08T04:40:35.564Z,37.13
2023-05-08T04:43:03.157Z,37.09
2023-05-08T04:45:30.894Z,37.19
2023-05-08T04:47:58.379Z,37.18
2023-05-08T04:50:25.986Z,37.26
2023-05-08T04:52:53.757Z,37.43
2023-05-08T04:55:21.364Z,37.55
2023-05-08T04:57:48.891Z,37.64
2023-05-08T05:00:17.151Z,37.84
2023-05-08T05:02:44.718Z,37.80
2023-05-08T05:05:12.636Z,37.98
2023-05-08T05:07:41.496Z,38.20
2023-05-08T05:10:09.735Z,38.20
2023-05-08T05:12:38.046Z,38.12
2023-05-08T05:15:06.362Z,38.26
2023-05-08T05:17:34.448Z,38.34
2023-05-08T05:20:02.202Z,38.49
2023-05-08T05:22:30.601Z,38.51
2023-05-08T05:24:58.292Z,38.55
2023-05-08T05:27:26.457Z,38.74
2023-05-08T05:29:54.252Z,38.72
2023-05-08T05:32:22.099Z,38.73
2023-05-08T05:34:49.506Z,38.25
2023-05-08T05:37:17.268Z,38.04
2023-05-08T05:39:44.716Z,37.84
2023-05-08T05:42:12.492Z,37.94
2023-05-08T05:44:40.617Z,37.92
2023-05-08T05:47:10.722Z,38.03
2023-05-08T05:49:39.778Z,37.93
2023-05-08T05:52:07.644Z,38.08
2023-05-08T05:54:35.392Z,38.17
2023-05-08T05:57:03.323Z,38.15
2023-05-08T05:59:31.282Z,38.12
2023-05-08T06:01:58.813Z,38.10
2023-05-08T06:04:26.821Z,38.05
2023-05-08T06:06:54.388Z,38.02
2023-05-08T06:09:21.845Z,38.02
2023-05-08T06:11:51.981Z,37.99
2023-05-08T06:14:19.525Z,37.97
2023-05-08T06:16:47.188Z,37.96
2023-05-08T06:19:16.216Z,37.96
2023-05-08T06:21:43.698Z,37.84
2023-05-08T06:24:11.753Z,37.85
2023-05-08T06:26:39.469Z,37.86
2023-05-08T06:29:06.862Z,37.82
2023-05-08T06:31:34.389Z,37.79
2023-05-08T06:34:02.345Z,37.81
2023-05-08T06:36:29.717Z,37.76
2023-05-08T06:38:57.422Z,37.60
2023-05-08T06:41:25.204Z,37.57
2023-05-08T06:43:52.638Z,37.60
2023-05-08T06:46:21.101Z,37.59
2023-05-08T06:48:48.756Z,37.45
2023-05-08T06:51:16.301Z,37.44
2023-05-08T06:53:43.799Z,37.51
2023-05-08T06:56:11.466Z,37.49
2023-05-08T06:58:38.932Z,37.47
2023-05-08T07:01:06.553Z,37.21
2023-05-08T07:03:34.618Z,37.35
2023-05-08T07:06:02.024Z,37.42
2023-05-08T07:08:30.208Z,37.40
2023-05-08T07:10:57.892Z,37.52
2023-05-08T07:13:25.772Z,37.47
2023-05-08T07:15:53.217Z,37.57
2023-05-08T07:18:21.093Z,37.54
2023-05-08T07:20:48.468Z,37.56
2023-05-08T07:23:16.726Z,37.59
2023-05-08T07:25:44.464Z,37.59
2023-05-08T07:28:11.888Z,37.61
2023-05-08T07:30:39.333Z,37.59
2023-05-08T07:33:07.055Z,37.36
2023-05-08T07:35:34.499Z,37.43
2023-05-08T07:38:01.968Z,37.40
2023-05-08T07:40:29.761Z,37.47
2023-05-08T07:42:57.157Z,37.51
2023-05-08T07:45:24.620Z,37.53
2023-05-08T07:47:53.792Z,37.51
2023-05-08T07:50:22.128Z,37.49
2023-05-08T07:52:50.508Z,37.46
2023-05-08T07:55:18.754Z,37.41
2023-05-08T07:57:46.289Z,37.40
2023-05-08T08:00:14.610Z,37.36
2023-05-08T08:02:42.538Z,37.32
2023-05-08T08:05:10.555Z,37.32
2023-05-08T08:07:38.005Z,37.27
2023-05-08T08:10:06.010Z,37.20
2023-05-08T08:12:33.754Z,37.21
2023-05-08T08:15:01.177Z,37.18
2023-05-08T08:17:29.170Z,37.04
2023-05-08T08:19:57.442Z,35.51
2023-05-08T08:22:25.500Z,35.53
2023-05-08T08:24:55.426Z,35.13
2023-05-08T08:27:23.577Z,35.20
2023-05-08T08:29:52.505Z,35.36
2023-05-08T08:32:26.461Z,35.44
2023-05-08T08:34:53.866Z,35.50
2023-05-08T08:37:21.308Z,34.81
2023-05-08T08:39:49.006Z,34.63
2023-05-08T08:42:16.456Z,34.51
2023-05-08T08:44:43.853Z,34.44
2023-05-08T08:47:14.343Z,34.30
2023-05-08T08:49:43.794Z,33.98
2023-05-08T08:52:28.338Z,34.10
2023-05-08T08:54:55.829Z,34.41
2023-05-08T08:57:23.521Z,34.72
2023-05-08T08:59:52.061Z,34.89
2023-05-08T09:02:19.600Z,34.90
2023-05-08T09:04:51.831Z,34.98
2023-05-08T09:07:19.336Z,34.88
2023-05-08T09:09:47.056Z,34.78
2023-05-08T09:12:14.582Z,35.06
2023-05-08T09:14:42.210Z,35.13
2023-05-08T09:17:10.185Z,35.15
2023-05-08T09:19:37.581Z,35.09
2023-05-08T09:22:06.910Z,35.02
2023-05-08T09:24:57.315Z,34.99
2023-05-08T09:27:24.989Z,34.74
2023-05-08T09:30:08.978Z,34.78
2023-05-08T09:32:37.909Z,34.82
2023-05-08T09:35:06.897Z,34.96
2023-05-08T09:37:37.208Z,34.86
2023-05-08T09:40:14.995Z,34.84
2023-05-08T09:42:42.870Z,34.82
2023-05-08T09:45:11.130Z,34.80
2023-05-08T09:47:39.615Z,34.60
2023-05-08T09:50:08.898Z,34.61
2023-05-08T09:52:39.428Z,34.84
2023-05-08T09:55:08.632Z,34.66
2023-05-08T09:57:38.563Z,34.61
2023-05-08T10:00:10.444Z,34.62
2023-05-08T10:02:42.068Z,34.79
2023-05-08T10:05:30.061Z,34.82
2023-05-08T10:07:58.649Z,34.64
2023-05-08T10:10:30.774Z,34.61
2023-05-08T10:12:58.737Z,34.77
2023-05-08T10:15:29.002Z,34.74
2023-05-08T10:17:59.300Z,34.67
2023-05-08T10:20:27.880Z,34.59
2023-05-08T10:22:55.253Z,34.64
2023-05-08T10:25:22.806Z,34.68
2023-05-08T10:28:01.869Z,34.67
2023-05-08T10:30:29.339Z,34.56
2023-05-08T10:32:58.419Z,34.50
2023-05-08T10:35:26.228Z,34.48
2023-05-08T10:37:53.667Z,34.36
2023-05-08T10:40:21.713Z,34.35
2023-05-08T10:42:49.135Z,34.50
2023-05-08T10:45:16.741Z,34.63
2023-05-08T10:48:03.198Z,34.67
2023-05-08T10:50:39.863Z,34.63
2023-05-08T10:53:08.371Z,34.61
2023-05-08T10:55:38.928Z,34.48
2023-05-08T10:58:09.402Z,34.30
2023-05-08T11:00:52.075Z,34.43
2023-05-08T11:03:30.701Z,34.52
2023-05-08T11:06:00.166Z,34.48
2023-05-08T11:08:28.395Z,34.33
2023-05-08T11:10:58.493Z,34.35
2023-05-08T11:13:29.183Z,34.37
2023-05-08T11:15:56.906Z,34.17
2023-05-08T11:18:32.459Z,34.36
2023-05-08T11:21:15.211Z,34.31
2023-05-08T11:23:42.721Z,34.31
2023-05-08T11:26:14.132Z,34.37
2023-05-08T11:28:53.503Z,34.37
2023-05-08T11:31:21.336Z,34.26
2023-05-08T11:33:48.897Z,34.17
2023-05-08T11:36:17.456Z,34.17
2023-05-08T11:38:45.335Z,34.16
2023-05-08T11:41:23.013Z,34.09
2023-05-08T11:44:02.961Z,34.17
2023-05-08T11:46:48.431Z,34.11
2023-05-08T11:49:23.857Z,34.14
2023-05-08T11:51:55.290Z,34.06
2023-05-08T11:54:23.001Z,34.02
2023-05-08T11:56:51.713Z,33.99
2023-05-08T11:59:19.234Z,33.96
2023-05-08T12:02:07.071Z,33.96
2023-05-08T12:04:46.690Z,34.00
2023-05-08T12:07:15.563Z,33.91
2023-05-08T12:09:43.295Z,33.93
2023-05-08T12:12:10.682Z,33.64
2023-05-08T12:14:38.089Z,33.58
2023-05-08T12:17:05.887Z,33.59
2023-05-08T12:19:33.395Z,33.55
2023-05-08T12:22:00.807Z,33.50
2023-05-08T12:24:28.509Z,33.50
2023-05-08T12:26:56.540Z,33.60
2023-05-08T12:29:47.259Z,33.59
2023-05-08T12:32:12.520Z,33.44
2023-05-08T12:34:39.936Z,33.33
2023-05-08T12:37:07.384Z,33.44
2023-05-08T12:39:36.486Z,33.46
2023-05-08T12:42:03.957Z,33.45
2023-05-08T12:44:31.462Z,33.34
2023-05-08T12:46:59.204Z,33.35
2023-05-08T12:49:28.745Z,33.33
2023-05-08T12:52:09.027Z,33.35
2023-05-08T12:54:37.712Z,33.34
2023-05-08T12:57:18.161Z,33.33
2023-05-08T12:59:46.080Z,33.23
2023-05-08T13:02:14.841Z,33.27
2023-05-08T13:04:42.864Z,33.21
2023-05-08T13:07:10.704Z,33.53
2023-05-08T13:09:38.600Z,33.87
2023-05-08T13:12:06.917Z,34.18
2023-05-08T13:14:34.649Z,34.37
2023-05-08T13:17:02.174Z,34.47
2023-05-08T13:19:29.647Z,34.49
2023-05-08T13:21:57.424Z,34.58
2023-05-08T13:24:25.853Z,34.54
2023-05-08T13:26:53.267Z,34.51
2023-05-08T13:29:22.125Z,34.61
2023-05-08T13:31:49.603Z,34.74
2023-05-08T13:34:17.115Z,34.79
2023-05-08T13:36:44.823Z,34.73
2023-05-08T13:39:12.187Z,34.79
2023-05-08T13:41:39.610Z,34.70
2023-05-08T13:44:07.277Z,34.61
2023-05-08T13:46:34.804Z,34.61
2023-05-08T13:49:02.339Z,34.61
2023-05-08T13:51:30.133Z,34.61
2023-05-08T13:53:57.551Z,34.61
2023-05-08T13:56:25.024Z,34.62
2023-05-08T13:58:52.741Z,34.64
2023-05-08T14:01:26.313Z,34.69
2023-05-08T14:03:55.570Z,34.74
2023-05-08T14:06:23.247Z,34.77
2023-05-08T14:08:52.737Z,34.78
2023-05-08T14:11:22.383Z,34.79
2023-05-08T14:13:49.792Z,34.82
2023-05-08T14:16:17.216Z,34.86
2023-05-08T14:18:45.046Z,34.89
2023-05-08T14:21:12.471Z,34.92
2023-05-08T14:23:40.118Z,34.95
2023-05-08T14:26:07.873Z,34.97
2023-05-08T14:28:35.280Z,34.97
2023-05-08T14:31:02.774Z,35.00
2023-05-08T14:33:30.738Z,35.03
2023-05-08T14:35:58.145Z,35.04
2023-05-08T14:38:25.607Z,34.99
2023-05-08T14:40:56.521Z,34.85
2023-05-08T14:43:23.950Z,34.53
2023-05-08T14:45:51.361Z,34.01
2023-05-08T14:48:19.026Z,34.16
2023-05-08T14:50:46.487Z,33.99
2023-05-08T14:53:14.105Z,33.97
2023-05-08T14:55:42.049Z,33.94
2023-05-08T14:58:09.908Z,33.77
2023-05-08T15:00:37.539Z,33.78
2023-05-08T15:03:05.374Z,33.63
2023-05-08T15:05:32.863Z,33.97
2023-05-08T15:08:01.547Z,34.15
2023-05-08T15:10:29.522Z,34.27
2023-05-08T15:12:57.176Z,34.34
2023-05-08T15:15:24.660Z,34.13
2023-05-08T15:17:52.375Z,34.16
2023-05-08T15:20:21.127Z,33.68
2023-05-08T15:22:48.676Z,33.86
2023-05-08T15:25:16.560Z,33.82
2023-05-08T15:27:44.379Z,33.53
2023-05-08T15:30:12.327Z,33.55
2023-05-08T15:32:40.345Z,32.45
2023-05-08T15:35:08.048Z,31.28
2023-05-08T15:37:37.309Z,31.15
2023-05-08T15:40:05.870Z,30.38
2023-05-08T15:42:33.280Z,30.06
2023-05-08T15:45:01.630Z,29.23
2023-05-08T15:47:31.358Z,28.89
2023-05-08T15:49:58.778Z,29.65
2023-05-08T15:52:26.279Z,29.53
2023-05-08T15:54:53.941Z,29.41
2023-05-08T15:57:21.409Z,28.83
2023-05-08T15:59:48.836Z,27.93
2023-05-08T16:02:16.576Z,27.38
2023-05-08T16:04:44.397Z,27.87
2023-05-08T16:07:11.826Z,27.15
2023-05-08T16:09:39.247Z,26.36
2023-05-08T16:12:07.068Z,26.21
2023-05-08T16:14:36.284Z,25.99
2023-05-08T16:17:03.991Z,25.90
2023-05-08T16:19:31.725Z,25.89
2023-05-08T16:21:59.147Z,26.39
2023-05-08T16:24:26.592Z,26.32
2023-05-08T16:26:54.302Z,26.08
2023-05-08T16:29:21.764Z,26.47
2023-05-08T16:31:49.479Z,27.06
2023-05-08T16:34:17.184Z,27.26
2023-05-08T16:36:44.636Z,27.47
2023-05-08T16:39:12.238Z,27.87
2023-05-08T16:41:40.091Z,27.89
2023-05-08T16:44:07.696Z,28.04
2023-05-08T16:46:35.189Z,28.31
2023-05-08T16:49:02.970Z,28.60
2023-05-08T16:51:30.784Z,28.86
2023-05-08T16:53:58.318Z,29.22
2023-05-08T16:56:26.704Z,29.54
2023-05-08T16:58:54.106Z,29.90
2023-05-08T17:01:21.629Z,30.23
2023-05-08T17:03:49.432Z,30.50
2023-05-08T17:06:17.012Z,30.81
2023-05-08T17:08:44.560Z,31.09
2023-05-08T17:11:12.257Z,31.39
2023-05-08T17:13:39.803Z,31.77
2023-05-08T17:16:07.589Z,31.89
2023-05-08T17:18:35.639Z,32.00
2023-05-08T17:21:03.040Z,32.00
2023-05-08T17:23:30.405Z,32.13
2023-05-08T17:25:58.720Z,32.32
2023-05-08T17:28:26.245Z,32.49
2023-05-08T17:30:53.685Z,32.74
2023-05-08T17:33:21.377Z,32.91
2023-05-08T17:35:48.813Z,32.94
2023-05-08T17:38:16.264Z,33.03
2023-05-08T17:40:44.017Z,33.18
2023-05-08T17:43:12.038Z,33.27
2023-05-08T17:45:39.582Z,33.43
2023-05-08T17:48:07.290Z,33.44
2023-05-08T17:50:35.313Z,33.60
2023-05-08T17:53:02.738Z,33.80
2023-05-08T17:55:31.701Z,33.87
2023-05-08T17:57:59.206Z,34.01
2023-05-08T18:00:26.595Z,34.05
2023-05-08T18:02:54.417Z,34.15
2023-05-08T18:05:22.115Z,34.28
2023-05-08T18:07:49.560Z,34.37
2023-05-08T18:10:17.930Z,34.34
2023-05-08T18:12:45.847Z,34.39
2023-05-08T18:15:13.555Z,34.36
2023-05-08T18:17:41.793Z,34.36
2023-05-08T18:20:09.572Z,34.39
2023-05-08T18:22:36.993Z,34.40
2023-05-08T18:25:05.250Z,34.42
2023-05-08T18:27:34.492Z,34.38
2023-05-08T18:30:02.012Z,34.42
2023-05-08T18:32:29.709Z,34.49
2023-05-08T18:34:57.284Z,34.52
2023-05-08T18:37:24.772Z,34.53
2023-05-08T18:39:52.836Z,34.63
2023-05-08T18:42:20.728Z,34.65
2023-05-08T18:44:48.335Z,34.64
2023-05-08T18:47:16.163Z,34.70
2023-05-08T18:49:44.024Z,34.66
2023-05-08T18:52:12.133Z,34.56
2023-05-08T18:54:39.844Z,34.45
2023-05-08T18:57:07.450Z,34.44
2023-05-08T18:59:35.151Z,34.36
2023-05-08T19:02:03.047Z,34.24
2023-05-08T19:04:30.568Z,34.21
2023-05-08T19:06:58.296Z,34.12
2023-05-08T19:09:25.976Z,34.04
2023-05-08T19:11:53.470Z,33.93
2023-05-08T19:14:20.948Z,33.93
2023-05-08T19:16:48.770Z,33.90
2023-05-08T19:19:16.561Z,33.85
2023-05-08T19:21:44.000Z,33.83
2023-05-08T19:24:12.361Z,33.81
2023-05-08T19:26:40.133Z,33.80
2023-05-08T19:29:07.905Z,33.76
2023-05-08T19:31:35.769Z,33.79
2023-05-08T19:34:03.664Z,33.76
2023-05-08T19:36:32.486Z,33.75
2023-05-08T19:39:00.363Z,33.75
2023-05-08T19:41:27.850Z,33.71
2023-05-08T19:43:55.378Z,33.74
2023-05-08T19:46:23.062Z,33.83
2023-05-08T19:48:50.619Z,33.83
2023-05-08T19:51:18.072Z,33.87
2023-05-08T19:53:45.888Z,33.92
2023-05-08T19:56:13.431Z,33.79
2023-05-08T19:58:41.055Z,33.90
2023-05-08T20:01:08.906Z,34.00
2023-05-08T20:03:36.790Z,34.09
2023-05-08T20:06:04.349Z,34.33
2023-05-08T20:08:31.728Z,34.32
2023-05-08T20:11:02.415Z,34.32
2023-05-08T20:13:30.009Z,34.37
2023-05-08T20:15:58.711Z,34.33
2023-05-08T20:18:26.496Z,34.20
2023-05-08T20:20:53.919Z,34.00
2023-05-08T20:23:21.464Z,34.03
2023-05-08T20:25:49.226Z,33.94
2023-05-08T20:28:22.166Z,33.77
2023-05-08T20:30:50.034Z,33.71
2023-05-08T20:33:17.521Z,33.51
2023-05-08T20:35:44.991Z,33.33
2023-05-08T20:38:13.725Z,33.40
2023-05-08T20:40:41.285Z,33.28
2023-05-08T20:43:09.501Z,33.14
2023-05-08T20:45:37.720Z,33.04
2023-05-08T20:48:05.261Z,32.98
2023-05-08T20:50:32.699Z,32.93
2023-05-08T20:53:00.331Z,33.03
2023-05-08T20:55:27.833Z,33.17
2023-05-08T20:57:55.243Z,32.93
2023-05-08T21:00:22.985Z,32.90
2023-05-08T21:02:50.479Z,32.88
2023-05-08T21:05:18.683Z,33.08
2023-05-08T21:07:46.401Z,33.03
2023-05-08T21:10:14.293Z,32.86
2023-05-08T21:12:44.502Z,32.80
2023-05-08T21:15:12.364Z,32.86
2023-05-08T21:17:40.148Z,32.91
2023-05-08T21:20:08.462Z,32.77
2023-05-08T21:22:36.933Z,32.69
2023-05-08T21:25:14.958Z,32.99
2023-05-08T21:27:43.322Z,32.78
2023-05-08T21:30:15.325Z,32.75
2023-05-08T21:32:43.903Z,32.56
2023-05-08T21:35:11.637Z,32.91
2023-05-08T21:37:39.397Z,32.98
2023-05-08T21:40:07.821Z,32.70
2023-05-08T21:42:35.253Z,32.58
2023-05-08T21:45:02.593Z,32.60
2023-05-08T21:47:30.427Z,32.50
2023-05-08T21:49:57.946Z,32.43
2023-05-08T21:52:26.382Z,32.37
2023-05-08T21:54:54.082Z,32.36
2023-05-08T21:57:21.497Z,32.54
2023-05-08T21:59:52.110Z,32.78
2023-05-08T22:02:20.115Z,32.50
2023-05-08T22:04:47.949Z,32.66
2023-05-08T22:07:15.414Z,32.49
2023-05-08T22:09:42.808Z,32.50
2023-05-08T22:12:10.586Z,32.58
2023-05-08T22:14:38.080Z,32.39
2023-05-08T22:17:05.511Z,32.37
2023-05-08T22:19:33.228Z,32.60
2023-05-08T22:22:00.669Z,32.64
2023-05-08T22:24:28.064Z,32.47
2023-05-08T22:26:55.784Z,32.61
2023-05-08T22:29:23.415Z,32.45
2023-05-08T22:31:50.939Z,32.61
2023-05-08T22:34:18.684Z,32.66
2023-05-08T22:36:46.137Z,32.58
2023-05-08T22:39:13.552Z,32.56
2023-05-08T22:41:41.250Z,32.59
2023-05-08T22:44:08.760Z,32.38
2023-05-08T22:46:36.218Z,32.34
2023-05-08T22:49:04.082Z,32.29
2023-05-08T22:51:32.642Z,32.26
2023-05-08T22:54:00.060Z,32.48
2023-05-08T22:56:27.781Z,32.51
2023-05-08T22:58:55.232Z,32.48
2023-05-08T23:01:22.778Z,32.74
2023-05-08T23:03:51.282Z,32.90
2023-05-08T23:06:18.721Z,32.89
2023-05-08T23:08:46.187Z,32.83
2023-05-08T23:11:13.953Z,32.73
2023-05-08T23:13:41.440Z,32.44
2023-05-08T23:16:08.876Z,32.59
2023-05-08T23:18:36.539Z,32.39
2023-05-08T23:21:07.727Z,32.19
2023-05-08T23:23:35.449Z,32.14
2023-05-08T23:26:05.090Z,32.11
2023-05-08T23:28:33.275Z,32.07
2023-05-08T23:31:01.216Z,32.04
2023-05-08T23:33:29.089Z,32.20
2023-05-08T23:35:57.146Z,32.27
2023-05-08T23:38:24.629Z,32.18
2023-05-08T23:40:52.300Z,32.28
2023-05-08T23:43:19.713Z,32.40
2023-05-08T23:45:47.147Z,32.41
2023-05-08T23:48:14.809Z,32.34
2023-05-08T23:50:42.202Z,32.20
2023-05-08T23:53:09.681Z,31.99
2023-05-08T23:55:37.881Z,31.84
2023-05-08T23:58:05.379Z,31.87
